Time;durP1;ratioP1;P1;durP2;ratioP2;P2;SDS_P1;SDS_P2;PMS_P1;PMS_P2;Temp;Humidity;BMP_temperature;BMP_pressure;BME280_temperature;BME280_humidity;BME280_pressure;Samples;Min_cycle;Max_cycle;Signal;HPM_P1;HPM_P2
2021/07/05 00:00:30;;;;;;;7.32;6.63;;;;;;;;;;5137488;27;20725;-65
2021/07/05 00:02:59;;;;;;;7.25;6.57;;;;;;;;;;5137319;27;20288;-66
2021/07/05 00:05:27;;;;;;;7.50;6.72;;;;;;;;;;5137729;27;20205;-65
2021/07/05 00:07:55;;;;;;;7.18;6.47;;;;;;;;;;5137492;27;20569;-65
2021/07/05 00:10:25;;;;;;;7.55;6.75;;;;;;;;;;5137473;27;20297;-65
2021/07/05 00:12:53;;;;;;;7.00;6.35;;;;;;;;;;5137557;27;20297;-65
2021/07/05 00:15:24;;;;;;;8.05;6.47;;;;;;;;;;5137381;27;20566;-65
2021/07/05 00:17:53;;;;;;;6.68;6.07;;;;;;;;;;5137147;27;20185;-66
2021/07/05 00:20:21;;;;;;;6.47;5.97;;;;;;;;;;5137146;27;20202;-66
2021/07/05 00:22:50;;;;;;;6.93;6.32;;;;;;;;;;5137186;27;20646;-65
2021/07/05 00:25:19;;;;;;;7.03;6.43;;;;;;;;;;5137317;27;20195;-66
2021/07/05 00:27:47;;;;;;;6.80;6.20;;;;;;;;;;5137354;27;20574;-66
2021/07/05 00:30:16;;;;;;;6.65;6.05;;;;;;;;;;5136925;27;20298;-66
2021/07/05 00:32:47;;;;;;;7.57;6.78;;;;;;;;;;5136827;27;20198;-65
2021/07/05 00:35:17;;;;;;;6.82;6.10;;;;;;;;;;5137268;27;20517;-65
2021/07/05 00:37:45;;;;;;;7.10;6.45;;;;;;;;;;5137126;27;20194;-65
2021/07/05 00:40:14;;;;;;;6.85;6.25;;;;;;;;;;5137153;27;20199;-66
2021/07/05 00:42:43;;;;;;;8.75;6.60;;;;;;;;;;5137000;27;20248;-65
2021/07/05 00:45:12;;;;;;;7.40;6.70;;;;;;;;;;5137149;27;20202;-66
2021/07/05 00:47:41;;;;;;;7.60;6.85;;;;;;;;;;5136330;27;20294;-64
2021/07/05 00:50:11;;;;;;;6.85;6.25;;;;;;;;;;5136494;27;20222;-65
2021/07/05 00:52:41;;;;;;;6.97;6.38;;;;;;;;;;5136749;27;20664;-65
2021/07/05 00:55:11;;;;;;;6.82;6.22;;;;;;;;;;5137173;27;20225;-64
2021/07/05 00:57:39;;;;;;;6.72;6.13;;;;;;;;;;5136918;27;20198;-65
2021/07/05 01:00:09;;;;;;;7.43;6.60;;;;;;;;;;5136467;27;20297;-65
2021/07/05 01:02:38;;;;;;;6.53;5.93;;;;;;;;;;5136490;27;20545;-65
2021/07/05 01:05:08;;;;;;;7.32;6.65;;;;;;;;;;5136133;27;20256;-62
2021/07/05 01:07:37;;;;;;;7.15;5.97;;;;;;;;;;5136853;27;20315;-63
2021/07/05 01:10:06;;;;;;;6.63;6.03;;;;;;;;;;5136487;27;20558;-62
2021/07/05 01:12:34;;;;;;;7.05;6.32;;;;;;;;;;5136610;27;20201;-62
2021/07/05 01:15:04;;;;;;;6.88;6.18;;;;;;;;;;5136353;27;20250;-62
2021/07/05 01:17:33;;;;;;;7.03;6.43;;;;;;;;;;5136669;27;20201;-62
2021/07/05 01:20:01;;;;;;;6.50;5.82;;;;;;;;;;5136629;27;20293;-62
2021/07/05 01:22:31;;;;;;;6.35;5.75;;;;;;;;;;5136556;27;20241;-62
2021/07/05 01:24:59;;;;;;;6.32;5.72;;;;;;;;;;5136609;27;20300;-62
2021/07/05 01:27:27;;;;;;;6.45;5.85;;;;;;;;;;5136421;27;20218;-61
2021/07/05 01:29:55;;;;;;;6.13;5.53;;;;;;;;;;5136232;27;20198;-63
2021/07/05 01:32:24;;;;;;;6.45;5.80;;;;;;;;;;5136094;27;20286;-62
2021/07/05 01:34:52;;;;;;;6.05;5.45;;;;;;;;;;5136012;27;20219;-62
2021/07/05 01:37:20;;;;;;;5.65;5.15;;;;;;;;;;5136078;27;20293;-62
2021/07/05 01:39:50;;;;;;;6.05;5.45;;;;;;;;;;5136161;27;20284;-62
2021/07/05 01:42:19;;;;;;;7.40;5.30;;;;;;;;;;5136133;27;20313;-62
2021/07/05 01:44:48;;;;;;;6.82;5.50;;;;;;;;;;5119105;27;20207;-63
2021/07/05 01:47:17;;;;;;;5.97;5.45;;;;;;;;;;5115019;28;20550;-63
2021/07/05 01:49:45;;;;;;;6.05;5.18;;;;;;;;;;5121173;27;20233;-63
2021/07/05 01:52:13;;;;;;;6.15;5.57;;;;;;;;;;5136025;27;20230;-62
2021/07/05 01:54:42;;;;;;;6.03;5.53;;;;;;;;;;5135698;27;20305;-62
2021/07/05 01:57:25;;;;;;;6.05;5.50;;;;;;;;;;5135172;27;20201;-64
2021/07/05 01:59:53;;;;;;;5.93;4.90;;;;;;;;;;5135829;27;20182;-63
2021/07/05 02:02:22;;;;;;;6.13;5.53;;;;;;;;;;5135530;27;20195;-63
2021/07/05 02:04:50;;;;;;;5.97;5.40;;;;;;;;;;5135912;27;20190;-62
2021/07/05 02:07:19;;;;;;;5.63;5.13;;;;;;;;;;5135631;27;20202;-62
2021/07/05 02:09:48;;;;;;;5.35;4.85;;;;;;;;;;5135696;27;20205;-62
2021/07/05 02:12:17;;;;;;;4.90;4.50;;;;;;;;;;5135460;27;20195;-62
2021/07/05 02:14:45;;;;;;;5.80;5.20;;;;;;;;;;5135319;27;20221;-63
2021/07/05 02:17:14;;;;;;;5.15;4.75;;;;;;;;;;5134235;27;20692;-63
2021/07/05 02:19:42;;;;;;;5.45;4.93;;;;;;;;;;5135430;27;20293;-62
2021/07/05 02:22:10;;;;;;;4.88;4.47;;;;;;;;;;5135235;27;20212;-63
2021/07/05 02:24:39;;;;;;;5.20;4.70;;;;;;;;;;5135478;27;20201;-62
2021/07/05 02:27:07;;;;;;;5.40;4.53;;;;;;;;;;5135239;27;20199;-63
2021/07/05 02:29:36;;;;;;;4.72;4.32;;;;;;;;;;5134935;27;20203;-63
2021/07/05 02:32:06;;;;;;;5.10;4.60;;;;;;;;;;5134883;27;20205;-63
2021/07/05 02:34:34;;;;;;;5.03;4.50;;;;;;;;;;5135243;27;20222;-62
2021/07/05 02:37:03;;;;;;;5.05;4.30;;;;;;;;;;5135046;27;20194;-64
2021/07/05 02:39:31;;;;;;;4.80;4.40;;;;;;;;;;5134905;27;20281;-64
2021/07/05 02:41:59;;;;;;;4.80;4.35;;;;;;;;;;5134921;27;20198;-63
2021/07/05 02:44:27;;;;;;;5.38;4.88;;;;;;;;;;5134476;27;20195;-63
2021/07/05 02:46:57;;;;;;;5.28;4.40;;;;;;;;;;5134429;27;20203;-63
2021/07/05 02:49:25;;;;;;;5.10;4.05;;;;;;;;;;5134294;27;20681;-62
2021/07/05 02:51:53;;;;;;;4.13;3.72;;;;;;;;;;5134784;27;20197;-63
2021/07/05 02:54:22;;;;;;;5.90;4.45;;;;;;;;;;5134568;27;20286;-61
2021/07/05 02:56:50;;;;;;;4.38;3.97;;;;;;;;;;5134577;27;20201;-63
2021/07/05 02:59:18;;;;;;;4.95;4.07;;;;;;;;;;5134394;27;20195;-62
2021/07/05 03:01:46;;;;;;;4.65;4.25;;;;;;;;;;5133960;27;20194;-62
2021/07/05 03:04:16;;;;;;;5.05;3.67;;;;;;;;;;5134364;27;20680;-62
2021/07/05 03:06:44;;;;;;;3.97;3.67;;;;;;;;;;5134023;27;20205;-64
2021/07/05 03:09:12;;;;;;;4.25;3.85;;;;;;;;;;5132067;27;20205;-62
2021/07/05 03:11:40;;;;;;;4.20;3.80;;;;;;;;;;5133185;27;20199;-61
2021/07/05 03:14:08;;;;;;;3.90;3.60;;;;;;;;;;5133853;27;20290;-62
2021/07/05 03:16:36;;;;;;;4.72;3.78;;;;;;;;;;5133877;27;20225;-63
2021/07/05 03:19:04;;;;;;;4.93;4.30;;;;;;;;;;5133933;27;20243;-62
2021/07/05 03:21:34;;;;;;;4.03;3.58;;;;;;;;;;5133759;27;20636;-63
2021/07/05 03:24:02;;;;;;;4.95;3.88;;;;;;;;;;5133713;27;20198;-63
2021/07/05 03:26:30;;;;;;;3.90;3.60;;;;;;;;;;5133329;27;20286;-63
2021/07/05 03:28:58;;;;;;;3.80;3.50;;;;;;;;;;5133576;27;20737;-62
2021/07/05 03:31:27;;;;;;;4.07;3.63;;;;;;;;;;5133572;27;20622;-62
2021/07/05 03:33:55;;;;;;;6.00;4.07;;;;;;;;;;5133447;27;20255;-62
2021/07/05 03:36:23;;;;;;;6.22;3.95;;;;;;;;;;5133567;27;20218;-63
2021/07/05 03:38:52;;;;;;;4.80;4.22;;;;;;;;;;5133389;27;20290;-62
2021/07/05 03:41:21;;;;;;;5.68;4.60;;;;;;;;;;5133628;27;20199;-63
2021/07/05 03:43:49;;;;;;;5.38;4.20;;;;;;;;;;5133541;27;20289;-62
2021/07/05 03:46:17;;;;;;;8.45;5.43;;;;;;;;;;5133583;27;20190;-62
2021/07/05 03:48:45;;;;;;;5.47;4.80;;;;;;;;;;5133284;27;20206;-63
2021/07/05 03:51:14;;;;;;;5.55;4.82;;;;;;;;;;5133163;28;20222;-62
2021/07/05 03:53:42;;;;;;;6.05;5.15;;;;;;;;;;5133421;28;20201;-63
2021/07/05 03:56:11;;;;;;;5.68;5.18;;;;;;;;;;5133683;28;20697;-63
2021/07/05 03:58:39;;;;;;;5.20;4.70;;;;;;;;;;5133649;28;20228;-62
2021/07/05 04:01:08;;;;;;;6.32;5.65;;;;;;;;;;5133354;28;20661;-63
2021/07/05 04:03:36;;;;;;;6.03;5.43;;;;;;;;;;5133518;28;20203;-63
2021/07/05 04:06:04;;;;;;;7.32;6.15;;;;;;;;;;5133849;28;20200;-62
2021/07/05 04:08:34;;;;;;;8.02;6.07;;;;;;;;;;5133283;28;20297;-63
2021/07/05 04:11:08;;;;;;;6.38;5.78;;;;;;;;;;5133305;28;20541;-62
2021/07/05 04:13:37;;;;;;;6.65;5.88;;;;;;;;;;5133571;28;20285;-64
2021/07/05 04:16:06;;;;;;;9.50;6.00;;;;;;;;;;5133119;28;20867;-63
2021/07/05 04:18:34;;;;;;;7.20;5.70;;;;;;;;;;5133198;28;20286;-65
2021/07/05 04:21:02;;;;;;;7.32;5.65;;;;;;;;;;5132994;28;20294;-62
2021/07/05 04:23:30;;;;;;;6.47;5.88;;;;;;;;;;5133160;28;20199;-63
2021/07/05 04:25:59;;;;;;;8.77;6.10;;;;;;;;;;5133172;28;20632;-63
2021/07/05 04:28:27;;;;;;;7.10;6.00;;;;;;;;;;5133268;28;20290;-63
2021/07/05 04:30:57;;;;;;;6.18;5.57;;;;;;;;;;5133022;28;20202;-63
2021/07/05 04:33:25;;;;;;;7.40;5.82;;;;;;;;;;5132721;28;20990;-63
2021/07/05 04:35:53;;;;;;;6.55;5.80;;;;;;;;;;5132724;28;20215;-63
2021/07/05 04:38:21;;;;;;;6.43;5.82;;;;;;;;;;5132875;27;20285;-63
2021/07/05 04:40:50;;;;;;;6.88;6.00;;;;;;;;;;5136707;27;20570;-63
2021/07/05 04:43:18;;;;;;;7.32;6.03;;;;;;;;;;5136465;27;20766;-62
2021/07/05 04:45:46;;;;;;;6.80;6.20;;;;;;;;;;5136697;27;20290;-62
2021/07/05 04:48:16;;;;;;;6.57;5.85;;;;;;;;;;5136946;27;20209;-63
2021/07/05 04:50:44;;;;;;;7.43;6.15;;;;;;;;;;5136455;27;20629;-62
2021/07/05 04:53:12;;;;;;;6.80;6.13;;;;;;;;;;5136702;27;20198;-63
2021/07/05 04:55:41;;;;;;;7.20;6.32;;;;;;;;;;5136853;27;20245;-62
2021/07/05 04:58:09;;;;;;;7.43;6.72;;;;;;;;;;5136450;27;20662;-63
2021/07/05 05:00:37;;;;;;;7.13;6.38;;;;;;;;;;5136216;27;20241;-63
2021/07/05 05:03:06;;;;;;;7.43;6.28;;;;;;;;;;5136715;27;20202;-63
2021/07/05 05:05:40;;;;;;;7.50;6.40;;;;;;;;;;5136201;27;20195;-63
2021/07/05 05:08:08;;;;;;;8.70;6.10;;;;;;;;;;5136255;27;20194;-63
2021/07/05 05:10:37;;;;;;;9.43;6.43;;;;;;;;;;5136443;27;20207;-65
2021/07/05 05:13:05;;;;;;;10.63;6.93;;;;;;;;;;5136199;27;20646;-62
2021/07/05 05:15:33;;;;;;;7.63;6.38;;;;;;;;;;5136176;27;20198;-63
2021/07/05 05:18:02;;;;;;;10.52;6.93;;;;;;;;;;5136154;27;20651;-63
2021/07/05 05:20:30;;;;;;;7.93;7.13;;;;;;;;;;5135922;27;20201;-63
2021/07/05 05:22:59;;;;;;;8.50;7.22;;;;;;;;;;5135721;27;20321;-64
2021/07/05 05:25:28;;;;;;;9.43;6.68;;;;;;;;;;5136008;27;20205;-63
2021/07/05 05:27:56;;;;;;;7.10;6.40;;;;;;;;;;5136196;27;20199;-65
2021/07/05 05:30:25;;;;;;;8.43;6.60;;;;;;;;;;5135815;27;20291;-64
2021/07/05 05:32:55;;;;;;;8.02;6.72;;;;;;;;;;5135969;27;20199;-62
2021/07/05 05:35:24;;;;;;;7.95;6.30;;;;;;;;;;5135777;27;20203;-64
2021/07/05 05:37:53;;;;;;;7.05;6.28;;;;;;;;;;5135698;27;20241;-63
2021/07/05 05:40:23;;;;;;;8.13;6.57;;;;;;;;;;5135928;27;20289;-63
2021/07/05 05:42:52;;;;;;;7.18;6.47;;;;;;;;;;5135629;27;20291;-64
2021/07/05 05:45:21;;;;;;;6.32;5.72;;;;;;;;;;5115126;28;20294;-63
2021/07/05 05:47:49;;;;;;;6.63;6.03;;;;;;;;;;5115255;28;20230;-65
2021/07/05 05:50:18;;;;;;;6.35;5.75;;;;;;;;;;5125578;27;20226;-63
2021/07/05 05:52:47;;;;;;;6.50;5.90;;;;;;;;;;5135565;27;20202;-63
2021/07/05 05:55:16;;;;;;;6.45;5.20;;;;;;;;;;5135491;27;20198;-63
2021/07/05 05:57:46;;;;;;;5.88;5.28;;;;;;;;;;5135283;27;20305;-64
2021/07/05 06:00:17;;;;;;;6.75;5.38;;;;;;;;;;5135376;27;20207;-65
2021/07/05 06:02:46;;;;;;;5.47;4.93;;;;;;;;;;5135304;27;20187;-63
2021/07/05 06:05:15;;;;;;;5.07;4.57;;;;;;;;;;5135519;27;20199;-62
2021/07/05 06:07:47;;;;;;;5.82;4.80;;;;;;;;;;5135069;27;20682;-64
2021/07/05 06:10:16;;;;;;;6.63;5.10;;;;;;;;;;5135407;27;20268;-62
2021/07/05 06:12:45;;;;;;;5.63;5.13;;;;;;;;;;5135311;27;20198;-62
2021/07/05 06:15:15;;;;;;;5.25;4.75;;;;;;;;;;5134738;27;20214;-63
2021/07/05 06:17:43;;;;;;;6.18;5.13;;;;;;;;;;5134986;27;20223;-63
2021/07/05 06:20:13;;;;;;;5.55;5.05;;;;;;;;;;5134767;27;20237;-62
2021/07/05 06:23:03;;;;;;;6.53;4.85;;;;;;;;;;5134694;27;20206;-61
2021/07/05 06:25:31;;;;;;;5.35;4.90;;;;;;;;;;5135025;27;20202;-63
2021/07/05 06:28:00;;;;;;;5.20;4.65;;;;;;;;;;5134802;27;20294;-63
2021/07/05 06:30:29;;;;;;;5.40;4.88;;;;;;;;;;5134677;27;20199;-61
2021/07/05 06:32:57;;;;;;;6.05;4.95;;;;;;;;;;5134805;27;20251;-63
2021/07/05 06:35:25;;;;;;;6.28;4.35;;;;;;;;;;5134733;27;20202;-63
2021/07/05 06:37:53;;;;;;;5.65;4.88;;;;;;;;;;5134603;27;20211;-63
2021/07/05 06:40:22;;;;;;;6.10;5.50;;;;;;;;;;5134618;27;20199;-62
2021/07/05 06:42:50;;;;;;;5.75;5.22;;;;;;;;;;5134330;27;20195;-63
2021/07/05 06:45:20;;;;;;;5.45;4.95;;;;;;;;;;5134563;27;20206;-64
2021/07/05 06:47:48;;;;;;;5.60;5.10;;;;;;;;;;5134437;27;20198;-63
2021/07/05 06:50:16;;;;;;;6.25;5.53;;;;;;;;;;5134422;27;20227;-63
2021/07/05 06:52:45;;;;;;;5.47;4.97;;;;;;;;;;5134158;27;20222;-61
2021/07/05 06:55:13;;;;;;;5.00;4.53;;;;;;;;;;5134379;27;20198;-63
2021/07/05 06:57:41;;;;;;;5.53;5.03;;;;;;;;;;5134390;27;20219;-63
2021/07/05 07:00:11;;;;;;;5.63;4.35;;;;;;;;;;5133915;27;20195;-64
2021/07/05 07:02:41;;;;;;;5.10;4.50;;;;;;;;;;5133788;27;20303;-61
2021/07/05 07:05:11;;;;;;;5.28;4.75;;;;;;;;;;5134530;27;20198;-62
2021/07/05 07:07:39;;;;;;;5.63;4.60;;;;;;;;;;5134051;27;20264;-63
2021/07/05 07:10:09;;;;;;;5.57;4.93;;;;;;;;;;5133791;27;20556;-63
2021/07/05 07:12:38;;;;;;;4.97;4.47;;;;;;;;;;5134125;27;20286;-62
2021/07/05 07:15:07;;;;;;;5.13;4.63;;;;;;;;;;5133827;27;20194;-63
2021/07/05 07:17:38;;;;;;;6.10;4.40;;;;;;;;;;5133854;27;20689;-63
2021/07/05 07:20:10;;;;;;;6.25;4.88;;;;;;;;;;5134066;27;20252;-62
2021/07/05 07:22:38;;;;;;;4.80;4.40;;;;;;;;;;5133780;27;20187;-62
2021/07/05 07:25:07;;;;;;;6.45;4.68;;;;;;;;;;5134160;27;20209;-63
2021/07/05 07:27:35;;;;;;;5.50;4.97;;;;;;;;;;5134067;27;20198;-63
2021/07/05 07:30:05;;;;;;;5.50;4.93;;;;;;;;;;5133452;27;20198;-63
2021/07/05 07:32:42;;;;;;;5.55;4.72;;;;;;;;;;5133656;27;20179;-63
2021/07/05 07:35:14;;;;;;;5.68;5.15;;;;;;;;;;5133633;27;20255;-61
2021/07/05 07:37:44;;;;;;;5.22;4.72;;;;;;;;;;5133583;27;20222;-63
2021/07/05 07:40:18;;;;;;;5.15;4.63;;;;;;;;;;5133715;27;20298;-63
2021/07/05 07:42:47;;;;;;;5.45;3.95;;;;;;;;;;5133371;27;20726;-62
2021/07/05 07:45:16;;;;;;;4.90;4.50;;;;;;;;;;5112794;28;20227;-63
2021/07/05 07:47:44;;;;;;;6.18;3.70;;;;;;;;;;5112949;28;20195;-62
2021/07/05 07:50:15;;;;;;;4.78;4.03;;;;;;;;;;5112848;28;20223;-63
2021/07/05 07:52:43;;;;;;;5.03;4.30;;;;;;;;;;5112668;28;20187;-64
2021/07/05 07:55:13;;;;;;;4.10;3.80;;;;;;;;;;5112870;28;20203;-63
2021/07/05 07:57:42;;;;;;;4.55;4.03;;;;;;;;;;5124096;27;20252;-63
2021/07/05 08:00:12;;;;;;;8.77;4.25;;;;;;;;;;5154193;27;20202;-62
2021/07/05 08:02:44;;;;;;;6.35;4.50;;;;;;;;;;5154036;27;20186;-63
2021/07/05 08:05:15;;;;;;;4.97;4.47;;;;;;;;;;5154122;27;20212;-63
2021/07/05 08:07:44;;;;;;;4.78;3.72;;;;;;;;;;5154096;27;20293;-64
2021/07/05 08:10:13;;;;;;;3.97;3.67;;;;;;;;;;5153529;27;20221;-63
2021/07/05 08:12:42;;;;;;;3.65;3.35;;;;;;;;;;5153946;27;20220;-63
2021/07/05 08:15:12;;;;;;;3.72;3.10;;;;;;;;;;5156905;27;20194;-62
2021/07/05 08:17:41;;;;;;;2.90;2.70;;;;;;;;;;5158150;27;20280;-63
2021/07/05 08:20:11;;;;;;;3.30;2.45;;;;;;;;;;5157373;27;20225;-63
2021/07/05 08:22:40;;;;;;;2.58;2.38;;;;;;;;;;5157864;27;20198;-63
2021/07/05 08:25:09;;;;;;;3.13;2.83;;;;;;;;;;5156341;27;20203;-63
2021/07/05 08:27:38;;;;;;;3.20;2.30;;;;;;;;;;5157500;27;20198;-63
2021/07/05 08:30:07;;;;;;;2.60;2.40;;;;;;;;;;5157907;27;20284;-63
2021/07/05 08:32:35;;;;;;;2.45;2.25;;;;;;;;;;5158233;27;20194;-62
2021/07/05 08:35:04;;;;;;;2.97;2.17;;;;;;;;;;5158075;27;20213;-64
2021/07/05 08:37:33;;;;;;;2.92;2.50;;;;;;;;;;5157442;27;20240;-64
2021/07/05 08:40:02;;;;;;;3.28;2.13;;;;;;;;;;5158046;27;20233;-63
2021/07/05 08:42:31;;;;;;;2.38;2.17;;;;;;;;;;5158020;27;20198;-63
2021/07/05 08:44:59;;;;;;;3.95;2.25;;;;;;;;;;5139146;27;20303;-63
2021/07/05 08:47:28;;;;;;;2.35;2.15;;;;;;;;;;5137004;27;20222;-63
2021/07/05 08:49:56;;;;;;;2.22;2.05;;;;;;;;;;5136812;27;20230;-63
2021/07/05 08:52:25;;;;;;;4.40;4.00;;;;;;;;;;5136653;27;20201;-63
2021/07/05 08:54:53;;;;;;;2.50;2.30;;;;;;;;;;5136465;27;20223;-63
2021/07/05 08:57:30;;;;;;;4.20;2.17;;;;;;;;;;5134051;27;20285;-63
2021/07/05 08:59:58;;;;;;;2.20;2.00;;;;;;;;;;5135997;27;20670;-63
2021/07/05 09:02:26;;;;;;;2.25;1.80;;;;;;;;;;5136623;27;20191;-63
2021/07/05 09:04:55;;;;;;;1.42;1.33;;;;;;;;;;5136779;27;20201;-62
2021/07/05 09:07:23;;;;;;;1.70;1.60;;;;;;;;;;5136593;27;20556;-63
2021/07/05 09:09:59;;;;;;;1.48;1.27;;;;;;;;;;5136596;27;20194;-63
2021/07/05 09:12:28;;;;;;;2.75;1.70;;;;;;;;;;5136985;27;20202;-63
2021/07/05 09:15:05;;;;;;;1.60;1.50;;;;;;;;;;5136453;27;20199;-62
2021/07/05 09:17:33;;;;;;;2.72;1.60;;;;;;;;;;5136525;27;20201;-63
2021/07/05 09:20:02;;;;;;;2.05;1.60;;;;;;;;;;5136307;27;20550;-62
2021/07/05 09:22:30;;;;;;;1.70;1.58;;;;;;;;;;5136480;27;20208;-62
2021/07/05 09:24:59;;;;;;;1.50;1.40;;;;;;;;;;5135912;27;20198;-62
2021/07/05 09:27:34;;;;;;;3.72;1.50;;;;;;;;;;5136202;27;20207;-63
2021/07/05 09:30:07;;;;;;;1.63;1.52;;;;;;;;;;5136313;27;20181;-64
2021/07/05 09:32:35;;;;;;;1.80;1.70;;;;;;;;;;5136183;27;20187;-63
2021/07/05 09:35:13;;;;;;;1.92;1.80;;;;;;;;;;5136297;27;20305;-63
2021/07/05 09:37:52;;;;;;;1.73;1.60;;;;;;;;;;5135847;27;20723;-63
2021/07/05 09:40:20;;;;;;;4.53;2.40;;;;;;;;;;5136382;27;20183;-65
2021/07/05 09:42:52;;;;;;;1.67;1.48;;;;;;;;;;5136125;27;20201;-63
2021/07/05 09:45:29;;;;;;;1.40;1.30;;;;;;;;;;5136014;27;20179;-63
2021/07/05 09:48:11;;;;;;;1.63;1.40;;;;;;;;;;5135678;27;20187;-62
2021/07/05 09:50:40;;;;;;;6.00;1.60;;;;;;;;;;5135535;27;20643;-62
2021/07/05 09:53:23;;;;;;;2.40;1.40;;;;;;;;;;5135725;27;20285;-63
2021/07/05 09:55:51;;;;;;;1.33;1.23;;;;;;;;;;5135477;27;20187;-62
2021/07/05 09:58:30;;;;;;;3.45;1.50;;;;;;;;;;5135549;27;20720;-62
2021/07/05 10:00:59;;;;;;;2.10;1.35;;;;;;;;;;5135521;27;20185;-63
2021/07/05 10:03:34;;;;;;;1.65;1.45;;;;;;;;;;5135458;27;20199;-62
2021/07/05 10:06:16;;;;;;;1.30;1.20;;;;;;;;;;5135371;27;20638;-63
2021/07/05 10:08:44;;;;;;;1.30;1.20;;;;;;;;;;5135709;27;20550;-62
2021/07/05 10:11:12;;;;;;;1.50;1.30;;;;;;;;;;5135731;27;20198;-63
2021/07/05 10:13:42;;;;;;;2.50;1.40;;;;;;;;;;5135259;27;20330;-65
2021/07/05 10:16:13;;;;;;;1.55;1.45;;;;;;;;;;5135362;27;20201;-64
2021/07/05 10:18:42;;;;;;;2.05;1.45;;;;;;;;;;5135022;27;20711;-62
2021/07/05 10:21:11;;;;;;;1.95;1.60;;;;;;;;;;5135324;27;20199;-63
2021/07/05 10:23:40;;;;;;;2.25;1.50;;;;;;;;;;5135290;27;20195;-64
2021/07/05 10:26:09;;;;;;;2.40;1.40;;;;;;;;;;5135516;27;20199;-63
2021/07/05 10:28:37;;;;;;;2.58;1.65;;;;;;;;;;5135435;27;20285;-63
2021/07/05 10:31:06;;;;;;;2.97;1.60;;;;;;;;;;5135225;27;20250;-62
2021/07/05 10:33:34;;;;;;;1.90;1.50;;;;;;;;;;5134973;27;20202;-63
2021/07/05 10:36:06;;;;;;;1.73;1.40;;;;;;;;;;5134805;27;20230;-62
2021/07/05 10:38:37;;;;;;;2.15;1.45;;;;;;;;;;5134546;27;20213;-61
2021/07/05 10:41:09;;;;;;;3.08;1.70;;;;;;;;;;5119699;27;20201;-60
2021/07/05 10:43:52;;;;;;;2.92;1.60;;;;;;;;;;5121158;27;20193;-60
2021/07/05 10:46:38;;;;;;;2.00;1.50;;;;;;;;;;5132606;27;20539;-60
2021/07/05 10:49:07;;;;;;;2.05;1.80;;;;;;;;;;5133332;27;20187;-61
2021/07/05 10:51:42;;;;;;;2.25;1.70;;;;;;;;;;5134173;27;20274;-60
2021/07/05 10:54:10;;;;;;;1.50;1.40;;;;;;;;;;5133600;27;20738;-61
2021/07/05 10:56:43;;;;;;;1.50;1.40;;;;;;;;;;5134161;27;20217;-60
2021/07/05 10:59:30;;;;;;;2.22;1.70;;;;;;;;;;5134377;27;20206;-61
2021/07/05 11:01:59;;;;;;;2.00;1.80;;;;;;;;;;5134045;27;20213;-60
2021/07/05 11:04:30;;;;;;;1.88;1.67;;;;;;;;;;5133814;27;20549;-61
2021/07/05 11:06:59;;;;;;;2.10;1.77;;;;;;;;;;5133922;27;20277;-60
2021/07/05 11:09:28;;;;;;;2.00;1.85;;;;;;;;;;5134124;27;20302;-61
2021/07/05 11:11:58;;;;;;;2.40;1.90;;;;;;;;;;5134887;27;20297;-60
2021/07/05 11:14:27;;;;;;;2.10;1.95;;;;;;;;;;5134817;27;20620;-61
2021/07/05 11:17:05;;;;;;;2.80;1.80;;;;;;;;;;5134107;27;20253;-61
2021/07/05 11:19:43;;;;;;;2.58;2.00;;;;;;;;;;5133681;27;20205;-61
2021/07/05 11:22:13;;;;;;;2.10;1.95;;;;;;;;;;5134164;27;20189;-60
2021/07/05 11:24:46;;;;;;;2.30;1.83;;;;;;;;;;5121709;27;20281;-60
2021/07/05 11:27:34;;;;;;;1.83;1.73;;;;;;;;;;5131047;27;20282;-60
2021/07/05 11:30:14;;;;;;;1.77;1.67;;;;;;;;;;5133872;27;20544;-60
2021/07/05 11:32:44;;;;;;;1.73;1.63;;;;;;;;;;5133745;27;20281;-60
2021/07/05 11:35:32;;;;;;;1.90;1.80;;;;;;;;;;5133952;27;20604;-60
2021/07/05 11:38:01;;;;;;;2.13;1.60;;;;;;;;;;5133660;27;20642;-60
2021/07/05 11:40:43;;;;;;;1.67;1.58;;;;;;;;;;5133390;27;20219;-60
2021/07/05 11:43:12;;;;;;;1.30;1.20;;;;;;;;;;5133704;27;20222;-59
2021/07/05 11:45:44;;;;;;;1.60;1.50;;;;;;;;;;5133572;27;20201;-60
2021/07/05 11:48:33;;;;;;;2.08;1.60;;;;;;;;;;5133449;27;20179;-60
2021/07/05 11:51:02;;;;;;;1.40;1.30;;;;;;;;;;5133306;27;20230;-60
2021/07/05 11:53:31;;;;;;;2.13;1.55;;;;;;;;;;5133240;27;20549;-62
2021/07/05 11:55:59;;;;;;;1.73;1.35;;;;;;;;;;5132987;28;20737;-60
2021/07/05 11:58:27;;;;;;;1.63;1.52;;;;;;;;;;5133176;28;20692;-62
2021/07/05 12:00:56;;;;;;;3.30;1.60;;;;;;;;;;5132991;28;20670;-60
2021/07/05 12:03:25;;;;;;;1.77;1.30;;;;;;;;;;5133063;28;20293;-64
2021/07/05 12:06:00;;;;;;;1.55;1.42;;;;;;;;;;5133289;28;20296;-67
2021/07/05 12:08:28;;;;;;;1.95;1.23;;;;;;;;;;5133485;28;20214;-70
2021/07/05 12:10:58;;;;;;;1.98;1.30;;;;;;;;;;5133180;28;20194;-69
2021/07/05 12:13:27;;;;;;;1.52;1.42;;;;;;;;;;5133518;28;20199;-70
2021/07/05 12:15:56;;;;;;;3.00;1.27;;;;;;;;;;5133652;28;20206;-70
2021/07/05 12:18:26;;;;;;;1.52;1.42;;;;;;;;;;5133771;28;20293;-69
2021/07/05 12:20:58;;;;;;;8.55;2.85;;;;;;;;;;5133396;28;20220;-70
2021/07/05 12:23:34;;;;;;;2.42;1.83;;;;;;;;;;5133157;28;20245;-71
2021/07/05 12:26:11;;;;;;;2.60;2.40;;;;;;;;;;5133504;28;20187;-70
2021/07/05 12:28:54;;;;;;;2.85;2.40;;;;;;;;;;5133227;28;20183;-70
2021/07/05 12:31:23;;;;;;;2.75;2.53;;;;;;;;;;5132327;28;20316;-70
2021/07/05 12:33:53;;;;;;;4.53;2.80;;;;;;;;;;5133084;28;20203;-70
2021/07/05 12:36:21;;;;;;;2.08;1.98;;;;;;;;;;5132896;28;20623;-70
2021/07/05 12:38:59;;;;;;;2.50;2.28;;;;;;;;;;5132638;28;20294;-70
2021/07/05 12:41:30;;;;;;;2.47;2.28;;;;;;;;;;5133252;28;20298;-70
2021/07/05 12:44:11;;;;;;;2.90;1.80;;;;;;;;;;5132849;28;20230;-69
2021/07/05 12:46:39;;;;;;;2.28;2.00;;;;;;;;;;5133067;28;20195;-69
2021/07/05 12:49:09;;;;;;;3.17;2.10;;;;;;;;;;5132865;28;20613;-70
2021/07/05 12:51:38;;;;;;;2.13;1.70;;;;;;;;;;5133141;28;20184;-69
2021/07/05 12:54:16;;;;;;;2.25;1.80;;;;;;;;;;5132870;28;20298;-70
2021/07/05 12:56:45;;;;;;;3.42;2.67;;;;;;;;;;5132993;28;20185;-70
2021/07/05 12:59:17;;;;;;;3.17;2.47;;;;;;;;;;5133124;27;20205;-69
2021/07/05 13:01:45;;;;;;;2.42;2.22;;;;;;;;;;5136255;27;20224;-69
2021/07/05 13:04:16;;;;;;;1.88;1.77;;;;;;;;;;5136684;27;20222;-70
2021/07/05 13:06:59;;;;;;;2.22;1.88;;;;;;;;;;5136920;27;20187;-69
2021/07/05 13:09:28;;;;;;;4.13;2.22;;;;;;;;;;5135999;27;20654;-70
2021/07/05 13:12:02;;;;;;;3.13;1.77;;;;;;;;;;5136193;27;20221;-70
2021/07/05 13:14:33;;;;;;;3.08;2.00;;;;;;;;;;5136757;27;20293;-70
2021/07/05 13:17:05;;;;;;;2.30;2.10;;;;;;;;;;5136144;27;20629;-69
2021/07/05 13:19:35;;;;;;;2.10;1.77;;;;;;;;;;5136330;27;20229;-70
2021/07/05 13:22:12;;;;;;;2.60;2.10;;;;;;;;;;5136478;27;20310;-70
2021/07/05 13:24:43;;;;;;;2.75;1.50;;;;;;;;;;5137010;27;20205;-70
2021/07/05 13:27:17;;;;;;;2.92;2.30;;;;;;;;;;5137246;27;20179;-70
2021/07/05 13:29:45;;;;;;;1.83;1.73;;;;;;;;;;5136530;27;20183;-70
2021/07/05 13:32:14;;;;;;;1.85;1.58;;;;;;;;;;5129156;27;20199;-69
2021/07/05 13:34:44;;;;;;;1.77;1.63;;;;;;;;;;5115469;28;20302;-70
2021/07/05 13:37:14;;;;;;;3.22;1.60;;;;;;;;;;5115288;28;20197;-70
2021/07/05 13:39:43;;;;;;;2.40;1.70;;;;;;;;;;5115080;28;20286;-69
2021/07/05 13:42:13;;;;;;;2.35;1.77;;;;;;;;;;5115478;28;20247;-70
2021/07/05 13:44:42;;;;;;;2.38;1.98;;;;;;;;;;5131106;27;20681;-70
2021/07/05 13:47:18;;;;;;;4.90;1.98;;;;;;;;;;5136021;27;20205;-70
2021/07/05 13:50:05;;;;;;;2.00;1.90;;;;;;;;;;5135586;27;20237;-69
2021/07/05 13:52:36;;;;;;;2.33;1.70;;;;;;;;;;5135303;27;20199;-68
2021/07/05 13:55:20;;;;;;;3.08;1.90;;;;;;;;;;5135656;27;20187;-70
2021/07/05 13:57:48;;;;;;;2.10;1.88;;;;;;;;;;5135351;27;20185;-70
2021/07/05 14:00:17;;;;;;;3.42;1.85;;;;;;;;;;5135155;27;20836;-70
2021/07/05 14:02:45;;;;;;;1.92;1.83;;;;;;;;;;5135372;27;20290;-70
2021/07/05 14:05:18;;;;;;;2.85;2.25;;;;;;;;;;5135495;27;20547;-70
2021/07/05 14:07:48;;;;;;;6.38;5.07;;;;;;;;;;5135374;27;20199;-70
2021/07/05 14:10:16;;;;;;;2.20;2.00;;;;;;;;;;5135532;27;20198;-71
2021/07/05 14:12:44;;;;;;;3.05;2.00;;;;;;;;;;5135429;27;20226;-71
2021/07/05 14:15:13;;;;;;;2.05;1.95;;;;;;;;;;5135316;27;20199;-70
2021/07/05 14:17:42;;;;;;;3.95;2.00;;;;;;;;;;5135284;27;20236;-71
2021/07/05 14:20:10;;;;;;;1.95;1.73;;;;;;;;;;5135280;27;20281;-70
2021/07/05 14:22:39;;;;;;;1.30;1.20;;;;;;;;;;5135010;27;20325;-70
2021/07/05 14:25:11;;;;;;;1.60;1.50;;;;;;;;;;5135322;27;20737;-69
2021/07/05 14:27:40;;;;;;;2.05;1.83;;;;;;;;;;5135152;27;20197;-69
2021/07/05 14:30:09;;;;;;;1.38;1.20;;;;;;;;;;5134737;27;20761;-69
2021/07/05 14:32:38;;;;;;;1.45;0.88;;;;;;;;;;5134949;27;20190;-69
2021/07/05 14:35:07;;;;;;;1.02;0.90;;;;;;;;;;5134749;27;20240;-70
2021/07/05 14:37:36;;;;;;;0.80;0.80;;;;;;;;;;5134739;27;20199;-69
2021/07/05 14:40:04;;;;;;;0.88;0.88;;;;;;;;;;5134729;27;20741;-70
2021/07/05 14:42:34;;;;;;;1.02;0.80;;;;;;;;;;5134501;27;20712;-71
2021/07/05 14:45:02;;;;;;;0.73;0.73;;;;;;;;;;5134254;27;20226;-69
2021/07/05 14:47:30;;;;;;;1.50;0.70;;;;;;;;;;5134896;27;20195;-70
2021/07/05 14:49:59;;;;;;;0.80;0.80;;;;;;;;;;5134316;27;20231;-69
2021/07/05 14:52:27;;;;;;;2.08;0.80;;;;;;;;;;5134566;27;20201;-69
2021/07/05 14:54:55;;;;;;;1.13;1.00;;;;;;;;;;5134820;27;20560;-69
2021/07/05 14:57:25;;;;;;;0.93;0.88;;;;;;;;;;5147587;27;20194;-69
2021/07/05 14:59:55;;;;;;;1.42;0.90;;;;;;;;;;5134163;27;20195;-70